Check out our new PWSWeather beta!
PWSweather.com
Personal Weather Stations
Station Observations
METEOC500
Santo Antonio, FunchalPT 2020

Santo AntonioFunchalPT 2020

Lat: 32.678227, Lon: -16.945054

Elevation: 1669.94751

Station Type: WH Series

High Low Average
Temperature 67.8°F19.9°C 56.3°F13.5°C 61.6°F16.4°C
Dew Point 54.9°F12.7°C 46.9°F8.3°C 50.8°F10.4°C
Winds 20.4 mph 32.8 kmh Calm Calm 3.0 mph SW4.8 kmh SW
Wind Gusts 32.7 mph52.6 kmh 4.9 mph7.9 kmh 10.0 mph16.1 kmh
Humidity 79% 51% 68%
Pressure 30.40 in1029.5 mb 30.31 in1026.4 mb -
Precipitation 0.00 in0.0 mm - -
Hour Temp Dew Point Humidity Winds Wind Gusts Pressure Precip Precip Rate Daily Precip Total
12:00 AM 58.6°F14.8°C 48.2°F9.0°C 68% Calm Calm 12.5 mph20.1 kmh 30.33 in1027.1 mb 0.00 in0.0 mm 0.00 in0.0 mm 0.00 in0.0 mm
12:15 AM 58.6°F14.8°C 48.9°F9.4°C 70% Calm Calm 10.1 mph16.3 kmh 30.33 in1027.1 mb 0.00 in0.0 mm 0.00 in0.0 mm 0.00 in0.0 mm
12:30 AM 57.7°F14.3°C 49.1°F9.5°C 73% 6.3 mph NW10.1 kmh NW 7.6 mph12.2 kmh 30.34 in1027.4 mb 0.00 in0.0 mm 0.00 in0.0 mm 0.00 in0.0 mm
12:45 AM 56.7°F13.7°C 48.4°F9.1°C 74% 4.5 mph NNW7.2 kmh NNW 7.6 mph12.2 kmh 30.33 in1027.1 mb 0.00 in0.0 mm 0.00 in0.0 mm 0.00 in0.0 mm
01:00 AM 56.3°F13.5°C 48.2°F9.0°C 74% 1.8 mph NNW2.9 kmh NNW 7.6 mph12.2 kmh 30.32 in1026.8 mb 0.00 in0.0 mm 0.00 in0.0 mm 0.00 in0.0 mm
01:15 AM 56.5°F13.6°C 48.0°F8.9°C 73% Calm Calm 10.1 mph16.3 kmh 30.32 in1026.8 mb 0.00 in0.0 mm 0.00 in0.0 mm 0.00 in0.0 mm
01:30 AM 56.7°F13.7°C 47.3°F8.5°C 71% 3.8 mph 6.1 kmh 10.1 mph16.3 kmh 30.31 in1026.4 mb 0.00 in0.0 mm 0.00 in0.0 mm 0.00 in0.0 mm
01:45 AM 57.0°F13.9°C 46.9°F8.3°C 69% 1.3 mph WNW2.1 kmh WNW 10.1 mph16.3 kmh 30.31 in1026.4 mb 0.00 in0.0 mm 0.00 in0.0 mm 0.00 in0.0 mm
02:00 AM 57.6°F14.2°C 48.6°F9.2°C 72% 3.8 mph NW6.1 kmh NW 7.6 mph12.2 kmh 30.32 in1026.8 mb 0.00 in0.0 mm 0.00 in0.0 mm 0.00 in0.0 mm
02:15 AM 57.2°F14.0°C 48.2°F9.0°C 72% 1.6 mph NNW2.6 kmh NNW 4.9 mph7.9 kmh 30.32 in1026.8 mb 0.00 in0.0 mm 0.00 in0.0 mm 0.00 in0.0 mm
02:30 AM 57.4°F14.1°C 48.7°F9.3°C 73% 4.7 mph N7.6 kmh N 7.6 mph12.2 kmh 30.32 in1026.8 mb 0.00 in0.0 mm 0.00 in0.0 mm 0.00 in0.0 mm
02:45 AM 57.9°F14.4°C 47.8°F8.8°C 69% 2.9 mph NNW4.7 kmh NNW 4.9 mph7.9 kmh 30.32 in1026.8 mb 0.00 in0.0 mm 0.00 in0.0 mm 0.00 in0.0 mm
03:00 AM 58.1°F14.5°C 48.4°F9.1°C 70% 2.2 mph NW3.5 kmh NW 7.6 mph12.2 kmh 30.32 in1026.8 mb 0.00 in0.0 mm 0.00 in0.0 mm 0.00 in0.0 mm
03:15 AM 58.3°F14.6°C 48.9°F9.4°C 71% 6.3 mph NW10.1 kmh NW 7.6 mph12.2 kmh 30.32 in1026.8 mb 0.00 in0.0 mm 0.00 in0.0 mm 0.00 in0.0 mm
03:30 AM 58.6°F14.8°C 49.6°F9.8°C 72% 5.6 mph NNW9.0 kmh NNW 7.6 mph12.2 kmh 30.31 in1026.4 mb 0.00 in0.0 mm 0.00 in0.0 mm 0.00 in0.0 mm
03:46 AM 58.8°F14.9°C 49.8°F9.9°C 72% 2.9 mph NW4.7 kmh NW 7.6 mph12.2 kmh 30.31 in1026.4 mb 0.00 in0.0 mm 0.00 in0.0 mm 0.00 in0.0 mm
04:01 AM 58.6°F14.8°C 50.0°F10.0°C 73% 1.6 mph 2.6 kmh 4.9 mph7.9 kmh 30.31 in1026.4 mb 0.00 in0.0 mm 0.00 in0.0 mm 0.00 in0.0 mm
04:16 AM 58.8°F14.9°C 49.8°F9.9°C 72% Calm Calm 7.6 mph12.2 kmh 30.31 in1026.4 mb 0.00 in0.0 mm 0.00 in0.0 mm 0.00 in0.0 mm
04:31 AM 59.0°F15.0°C 50.0°F10.0°C 72% 0.7 mph ESE1.1 kmh ESE 7.6 mph12.2 kmh 30.31 in1026.4 mb 0.00 in0.0 mm 0.00 in0.0 mm 0.00 in0.0 mm
04:46 AM 59.0°F15.0°C 50.7°F10.4°C 74% 0.9 mph SW1.4 kmh SW 7.6 mph12.2 kmh 30.31 in1026.4 mb 0.00 in0.0 mm 0.00 in0.0 mm 0.00 in0.0 mm
05:01 AM 59.0°F15.0°C 51.1°F10.6°C 75% 0.2 mph NNW0.3 kmh NNW 4.9 mph7.9 kmh 30.31 in1026.4 mb 0.00 in0.0 mm 0.00 in0.0 mm 0.00 in0.0 mm
05:16 AM 59.2°F15.1°C 51.3°F10.7°C 75% 4.0 mph NW6.4 kmh NW 12.5 mph20.1 kmh 30.31 in1026.4 mb 0.00 in0.0 mm 0.00 in0.0 mm 0.00 in0.0 mm
05:31 AM 59.0°F15.0°C 51.4°F10.8°C 76% Calm Calm 7.6 mph12.2 kmh 30.31 in1026.4 mb 0.00 in0.0 mm 0.00 in0.0 mm 0.00 in0.0 mm
05:46 AM 58.5°F14.7°C 51.3°F10.7°C 77% Calm Calm 7.6 mph12.2 kmh 30.31 in1026.4 mb 0.00 in0.0 mm 0.00 in0.0 mm 0.00 in0.0 mm
06:01 AM 58.1°F14.5°C 51.3°F10.7°C 78% Calm Calm 7.6 mph12.2 kmh 30.31 in1026.4 mb 0.00 in0.0 mm 0.00 in0.0 mm 0.00 in0.0 mm
06:16 AM 57.6°F14.2°C 51.1°F10.6°C 79% 1.6 mph NW2.6 kmh NW 7.6 mph12.2 kmh 30.31 in1026.4 mb 0.00 in0.0 mm 0.00 in0.0 mm 0.00 in0.0 mm
06:31 AM 57.2°F14.0°C 50.4°F10.2°C 78% 6.5 mph NW10.5 kmh NW 7.6 mph12.2 kmh 30.31 in1026.4 mb 0.00 in0.0 mm 0.00 in0.0 mm 0.00 in0.0 mm
06:46 AM 57.6°F14.2°C 49.3°F9.6°C 74% 0.7 mph NW1.1 kmh NW 15.0 mph24.1 kmh 30.31 in1026.4 mb 0.00 in0.0 mm 0.00 in0.0 mm 0.00 in0.0 mm
07:01 AM 57.4°F14.1°C 49.5°F9.7°C 75% 4.9 mph NNW7.9 kmh NNW 7.6 mph12.2 kmh 30.32 in1026.8 mb 0.00 in0.0 mm 0.00 in0.0 mm 0.00 in0.0 mm
07:16 AM 56.7°F13.7°C 48.7°F9.3°C 75% 0.7 mph NW1.1 kmh NW 7.6 mph12.2 kmh 30.32 in1026.8 mb 0.00 in0.0 mm 0.00 in0.0 mm 0.00 in0.0 mm
07:31 AM 56.7°F13.7°C 48.7°F9.3°C 75% Calm Calm 7.6 mph12.2 kmh 30.33 in1027.1 mb 0.00 in0.0 mm 0.00 in0.0 mm 0.00 in0.0 mm
07:46 AM 56.8°F13.8°C 49.3°F9.6°C 76% 1.6 mph NW2.6 kmh NW 7.6 mph12.2 kmh 30.34 in1027.4 mb 0.00 in0.0 mm 0.00 in0.0 mm 0.00 in0.0 mm
08:01 AM 57.2°F14.0°C 48.9°F9.4°C 74% 0.2 mph W0.3 kmh W 15.0 mph24.1 kmh 30.34 in1027.4 mb 0.00 in0.0 mm 0.00 in0.0 mm 0.00 in0.0 mm
08:16 AM 57.7°F14.3°C 49.5°F9.7°C 74% 1.6 mph NW2.6 kmh NW 10.1 mph16.3 kmh 30.35 in1027.8 mb 0.00 in0.0 mm 0.00 in0.0 mm 0.00 in0.0 mm
08:31 AM 58.5°F14.7°C 50.2°F10.1°C 74% 4.7 mph NW7.6 kmh NW 7.6 mph12.2 kmh 30.36 in1028.1 mb 0.00 in0.0 mm 0.00 in0.0 mm 0.00 in0.0 mm
08:46 AM 59.0°F15.0°C 50.7°F10.4°C 74% 1.3 mph NNW2.1 kmh NNW 4.9 mph7.9 kmh 30.36 in1028.1 mb 0.00 in0.0 mm 0.00 in0.0 mm 0.00 in0.0 mm
09:01 AM 59.5°F15.3°C 50.5°F10.3°C 72% Calm Calm 4.9 mph7.9 kmh 30.37 in1028.4 mb 0.00 in0.0 mm 0.00 in0.0 mm 0.00 in0.0 mm
09:16 AM 61.3°F16.3°C 49.5°F9.7°C 65% 3.8 mph SSE6.1 kmh SSE 4.9 mph7.9 kmh 30.37 in1028.4 mb 0.00 in0.0 mm 0.00 in0.0 mm 0.00 in0.0 mm
09:32 AM 63.1°F17.3°C 49.8°F9.9°C 62% 0.2 mph SE0.3 kmh SE 7.6 mph12.2 kmh 30.37 in1028.4 mb 0.00 in0.0 mm 0.00 in0.0 mm 0.00 in0.0 mm
09:47 AM 64.6°F18.1°C 50.0°F10.0°C 59% 1.3 mph E2.1 kmh E 10.1 mph16.3 kmh 30.38 in1028.8 mb 0.00 in0.0 mm 0.00 in0.0 mm 0.00 in0.0 mm
10:02 AM 65.8°F18.8°C 50.7°F10.4°C 58% 3.1 mph E5.0 kmh E 7.6 mph12.2 kmh 30.38 in1028.8 mb 0.00 in0.0 mm 0.00 in0.0 mm 0.00 in0.0 mm
10:17 AM 67.1°F19.5°C 52.3°F11.3°C 59% 1.8 mph SW2.9 kmh SW 12.5 mph20.1 kmh 30.38 in1028.8 mb 0.00 in0.0 mm 0.00 in0.0 mm 0.00 in0.0 mm
10:32 AM 67.8°F19.9°C 52.9°F11.6°C 59% 2.5 mph SE4.0 kmh SE 10.1 mph16.3 kmh 30.38 in1028.8 mb 0.00 in0.0 mm 0.00 in0.0 mm 0.00 in0.0 mm
10:47 AM 66.7°F19.3°C 53.2°F11.8°C 62% 3.1 mph NNW5.0 kmh NNW 12.5 mph20.1 kmh 30.38 in1028.8 mb 0.00 in0.0 mm 0.00 in0.0 mm 0.00 in0.0 mm
11:02 AM 65.1°F18.4°C 52.2°F11.2°C 63% 2.9 mph SW4.7 kmh SW 10.1 mph16.3 kmh 30.38 in1028.8 mb 0.00 in0.0 mm 0.00 in0.0 mm 0.00 in0.0 mm
11:17 AM 64.6°F18.1°C 48.9°F9.4°C 57% 12.8 mph NNW20.6 kmh NNW 17.4 mph28.0 kmh 30.38 in1028.8 mb 0.00 in0.0 mm 0.00 in0.0 mm 0.00 in0.0 mm
11:32 AM 65.3°F18.5°C 48.2°F9.0°C 54% 0.7 mph ESE1.1 kmh ESE 17.4 mph28.0 kmh 30.38 in1028.8 mb 0.00 in0.0 mm 0.00 in0.0 mm 0.00 in0.0 mm
11:47 AM 66.9°F19.4°C 48.7°F9.3°C 52% 4.7 mph S7.6 kmh S 12.5 mph20.1 kmh 30.37 in1028.4 mb 0.00 in0.0 mm 0.00 in0.0 mm 0.00 in0.0 mm
12:02 PM 67.3°F19.6°C 50.0°F10.0°C 54% 6.5 mph N10.5 kmh N 20.1 mph32.3 kmh 30.37 in1028.4 mb 0.00 in0.0 mm 0.00 in0.0 mm 0.00 in0.0 mm
12:17 PM 66.2°F19.0°C 47.5°F8.6°C 51% 4.9 mph SW7.9 kmh SW 17.4 mph28.0 kmh 30.36 in1028.1 mb 0.00 in0.0 mm 0.00 in0.0 mm 0.00 in0.0 mm
12:32 PM 66.4°F19.1°C 47.7°F8.7°C 51% 20.4 mph NNW32.8 kmh NNW 25.1 mph40.4 kmh 30.36 in1028.1 mb 0.00 in0.0 mm 0.00 in0.0 mm 0.00 in0.0 mm
12:47 PM 66.0°F18.9°C 49.8°F9.9°C 56% 13.9 mph NW22.4 kmh NW 32.7 mph52.6 kmh 30.35 in1027.8 mb 0.00 in0.0 mm 0.00 in0.0 mm 0.00 in0.0 mm
01:02 PM 65.1°F18.4°C 47.5°F8.6°C 53% 14.3 mph NNW23.0 kmh NNW 22.6 mph36.4 kmh 30.35 in1027.8 mb 0.00 in0.0 mm 0.00 in0.0 mm 0.00 in0.0 mm
01:17 PM 65.3°F18.5°C 49.6°F9.8°C 57% 3.1 mph NW5.0 kmh NW 20.1 mph32.3 kmh 30.34 in1027.4 mb 0.00 in0.0 mm 0.00 in0.0 mm 0.00 in0.0 mm
01:32 PM 65.5°F18.6°C 48.4°F9.1°C 54% 8.7 mph NNW14.0 kmh NNW 25.1 mph40.4 kmh 30.34 in1027.4 mb 0.00 in0.0 mm 0.00 in0.0 mm 0.00 in0.0 mm
01:47 PM 66.2°F19.0°C 48.0°F8.9°C 52% 0.2 mph S0.3 kmh S 17.4 mph28.0 kmh 30.33 in1027.1 mb 0.00 in0.0 mm 0.00 in0.0 mm 0.00 in0.0 mm
02:02 PM 66.9°F19.4°C 50.2°F10.1°C 55% 3.8 mph WSW6.1 kmh WSW 22.6 mph36.4 kmh 30.33 in1027.1 mb 0.00 in0.0 mm 0.00 in0.0 mm 0.00 in0.0 mm
02:17 PM 67.1°F19.5°C 48.9°F9.4°C 52% 5.6 mph S9.0 kmh S 12.5 mph20.1 kmh 30.32 in1026.8 mb 0.00 in0.0 mm 0.00 in0.0 mm 0.00 in0.0 mm
02:32 PM 67.3°F19.6°C 49.6°F9.8°C 53% 14.3 mph NNW23.0 kmh NNW 20.1 mph32.3 kmh 30.32 in1026.8 mb 0.00 in0.0 mm 0.00 in0.0 mm 0.00 in0.0 mm
02:47 PM 67.1°F19.5°C 48.4°F9.1°C 51% 3.1 mph SSE5.0 kmh SSE 22.6 mph36.4 kmh 30.32 in1026.8 mb 0.00 in0.0 mm 0.00 in0.0 mm 0.00 in0.0 mm
03:03 PM 67.5°F19.7°C 51.6°F10.9°C 57% 1.6 mph S2.6 kmh S 12.5 mph20.1 kmh 30.32 in1026.8 mb 0.00 in0.0 mm 0.00 in0.0 mm 0.00 in0.0 mm
03:18 PM 67.5°F19.7°C 52.7°F11.5°C 59% 4.5 mph S7.2 kmh S 20.1 mph32.3 kmh 30.32 in1026.8 mb 0.00 in0.0 mm 0.00 in0.0 mm 0.00 in0.0 mm
03:33 PM 66.6°F19.2°C 54.9°F12.7°C 66% 2.2 mph E3.5 kmh E 15.0 mph24.1 kmh 30.33 in1027.1 mb 0.00 in0.0 mm 0.00 in0.0 mm 0.00 in0.0 mm
03:48 PM 65.3°F18.5°C 54.5°F12.5°C 68% 2.2 mph SSW3.5 kmh SSW 10.1 mph16.3 kmh 30.32 in1026.8 mb 0.00 in0.0 mm 0.00 in0.0 mm 0.00 in0.0 mm
04:03 PM 64.6°F18.1°C 52.9°F11.6°C 66% Calm Calm 7.6 mph12.2 kmh 30.33 in1027.1 mb 0.00 in0.0 mm 0.00 in0.0 mm 0.00 in0.0 mm
04:18 PM 64.9°F18.3°C 52.9°F11.6°C 65% 1.8 mph NE2.9 kmh NE 4.9 mph7.9 kmh 30.32 in1026.8 mb 0.00 in0.0 mm 0.00 in0.0 mm 0.00 in0.0 mm
04:33 PM 65.3°F18.5°C 54.5°F12.5°C 68% 0.9 mph S1.4 kmh S 7.6 mph12.2 kmh 30.33 in1027.1 mb 0.00 in0.0 mm 0.00 in0.0 mm 0.00 in0.0 mm
04:48 PM 64.9°F18.3°C 54.5°F12.5°C 69% Calm Calm 7.6 mph12.2 kmh 30.32 in1026.8 mb 0.00 in0.0 mm 0.00 in0.0 mm 0.00 in0.0 mm
05:03 PM 64.8°F18.2°C 54.0°F12.2°C 68% 0.9 mph WSW1.4 kmh WSW 7.6 mph12.2 kmh 30.33 in1027.1 mb 0.00 in0.0 mm 0.00 in0.0 mm 0.00 in0.0 mm
05:18 PM 64.8°F18.2°C 54.0°F12.2°C 68% 2.2 mph S3.5 kmh S 7.6 mph12.2 kmh 30.33 in1027.1 mb 0.00 in0.0 mm 0.00 in0.0 mm 0.00 in0.0 mm
05:33 PM 64.4°F18.0°C 53.6°F12.0°C 68% 2.9 mph S4.7 kmh S 12.5 mph20.1 kmh 30.33 in1027.1 mb 0.00 in0.0 mm 0.00 in0.0 mm 0.00 in0.0 mm
05:48 PM 63.9°F17.7°C 52.7°F11.5°C 67% 3.4 mph SSE5.5 kmh SSE 4.9 mph7.9 kmh 30.34 in1027.4 mb 0.00 in0.0 mm 0.00 in0.0 mm 0.00 in0.0 mm
06:03 PM 63.5°F17.5°C 52.7°F11.5°C 68% Calm Calm 7.6 mph12.2 kmh 30.34 in1027.4 mb 0.00 in0.0 mm 0.00 in0.0 mm 0.00 in0.0 mm
06:18 PM 63.0°F17.2°C 52.2°F11.2°C 68% Calm Calm 4.9 mph7.9 kmh 30.34 in1027.4 mb 0.00 in0.0 mm 0.00 in0.0 mm 0.00 in0.0 mm
06:33 PM 62.8°F17.1°C 52.0°F11.1°C 68% 0.9 mph SSW1.4 kmh SSW 4.9 mph7.9 kmh 30.35 in1027.8 mb 0.00 in0.0 mm 0.00 in0.0 mm 0.00 in0.0 mm
06:48 PM 62.6°F17.0°C 53.8°F12.1°C 73% Calm Calm 7.6 mph12.2 kmh 30.35 in1027.8 mb 0.00 in0.0 mm 0.00 in0.0 mm 0.00 in0.0 mm
07:03 PM 62.4°F16.9°C 54.0°F12.2°C 74% 0.2 mph S0.3 kmh S 7.6 mph12.2 kmh 30.35 in1027.8 mb 0.00 in0.0 mm 0.00 in0.0 mm 0.00 in0.0 mm
07:18 PM 61.9°F16.6°C 54.9°F12.7°C 78% 3.4 mph SW5.5 kmh SW 7.6 mph12.2 kmh 30.36 in1028.1 mb 0.00 in0.0 mm 0.00 in0.0 mm 0.00 in0.0 mm
07:33 PM 61.3°F16.3°C 54.1°F12.3°C 77% Calm Calm 7.6 mph12.2 kmh 30.37 in1028.4 mb 0.00 in0.0 mm 0.00 in0.0 mm 0.00 in0.0 mm
07:48 PM 61.0°F16.1°C 53.8°F12.1°C 77% Calm Calm 7.6 mph12.2 kmh 30.37 in1028.4 mb 0.00 in0.0 mm 0.00 in0.0 mm 0.00 in0.0 mm
08:03 PM 61.2°F16.2°C 54.0°F12.2°C 77% 3.1 mph SSW5.0 kmh SSW 7.6 mph12.2 kmh 30.37 in1028.4 mb 0.00 in0.0 mm 0.00 in0.0 mm 0.00 in0.0 mm
08:18 PM 61.2°F16.2°C 53.2°F11.8°C 75% Calm Calm 7.6 mph12.2 kmh 30.37 in1028.4 mb 0.00 in0.0 mm 0.00 in0.0 mm 0.00 in0.0 mm
08:34 PM 61.3°F16.3°C 52.2°F11.2°C 72% 1.3 mph NW2.1 kmh NW 4.9 mph7.9 kmh 30.37 in1028.4 mb 0.00 in0.0 mm 0.00 in0.0 mm 0.00 in0.0 mm
08:49 PM 61.5°F16.4°C 52.0°F11.1°C 71% Calm Calm 4.9 mph7.9 kmh 30.37 in1028.4 mb 0.00 in0.0 mm 0.00 in0.0 mm 0.00 in0.0 mm
09:04 PM 61.7°F16.5°C 51.8°F11.0°C 70% 2.5 mph SE4.0 kmh SE 7.6 mph12.2 kmh 30.37 in1028.4 mb 0.00 in0.0 mm 0.00 in0.0 mm 0.00 in0.0 mm
09:19 PM 61.5°F16.4°C 51.6°F10.9°C 70% 1.8 mph SE2.9 kmh SE 7.6 mph12.2 kmh 30.37 in1028.4 mb 0.00 in0.0 mm 0.00 in0.0 mm 0.00 in0.0 mm
09:34 PM 61.3°F16.3°C 51.4°F10.8°C 70% 1.3 mph NW2.1 kmh NW 7.6 mph12.2 kmh 30.38 in1028.8 mb 0.00 in0.0 mm 0.00 in0.0 mm 0.00 in0.0 mm
09:49 PM 61.0°F16.1°C 52.3°F11.3°C 73% 4.0 mph SW6.4 kmh SW 7.6 mph12.2 kmh 30.38 in1028.8 mb 0.00 in0.0 mm 0.00 in0.0 mm 0.00 in0.0 mm
10:04 PM 60.4°F15.8°C 52.5°F11.4°C 75% 1.6 mph NNW2.6 kmh NNW 4.9 mph7.9 kmh 30.39 in1029.1 mb 0.00 in0.0 mm 0.00 in0.0 mm 0.00 in0.0 mm
10:19 PM 59.9°F15.5°C 52.3°F11.3°C 76% 3.1 mph NW5.0 kmh NW 7.6 mph12.2 kmh 30.39 in1029.1 mb 0.00 in0.0 mm 0.00 in0.0 mm 0.00 in0.0 mm
10:34 PM 59.7°F15.4°C 52.2°F11.2°C 76% 0.2 mph NNW0.3 kmh NNW 10.1 mph16.3 kmh 30.40 in1029.5 mb 0.00 in0.0 mm 0.00 in0.0 mm 0.00 in0.0 mm
10:49 PM 59.7°F15.4°C 52.5°F11.4°C 77% 6.0 mph NNW9.7 kmh NNW 7.6 mph12.2 kmh 30.40 in1029.5 mb 0.00 in0.0 mm 0.00 in0.0 mm 0.00 in0.0 mm
11:04 PM 59.9°F15.5°C 52.7°F11.5°C 77% Calm Calm 7.6 mph12.2 kmh 30.40 in1029.5 mb 0.00 in0.0 mm 0.00 in0.0 mm 0.00 in0.0 mm
11:19 PM 60.1°F15.6°C 52.9°F11.6°C 77% Calm Calm 7.6 mph12.2 kmh 30.40 in1029.5 mb 0.00 in0.0 mm 0.00 in0.0 mm 0.00 in0.0 mm
11:34 PM 60.3°F15.7°C 53.1°F11.7°C 77% 0.7 mph N1.1 kmh N 7.6 mph12.2 kmh 30.39 in1029.1 mb 0.00 in0.0 mm 0.00 in0.0 mm 0.00 in0.0 mm
11:49 PM 60.6°F15.9°C 53.4°F11.9°C 77% Calm Calm 7.6 mph12.2 kmh 30.39 in1029.1 mb 0.00 in0.0 mm 0.00 in0.0 mm 0.00 in0.0 mm